メインページ
METAR-TAF:

METAR-TAF

空港 :

サー・シウサガル・ラングーラム国際空港

モーリシャス, モーリシャス

緯度: 20-26S, 経度: 057-40E, 海抜: 55m

現時点の気象観測

当レポートは29分前の01:00(UTC)に作成
の風 2kt
気温 26°C
湿度 84%
気圧 1015 hPa
視程10km以上
高度1700ftの雲はほとんどない
高度5000ftの雲は散在している

METAR: FIMP 210100Z 36002KT 9999 FEW017 SCT050 26/23 Q1015

時間: 05:29 (01:29 UTC)

予報

当レポートは1時間49分前の23:40(UTC)に作成
予報は21日の 00時(UTC)から 22日の 06時(UTC)まで有効
北/北西の風 3kt
視程10km以上
高度1700ftの雲は散在している
確率 30% :
21日の 00時(UTC)から 21日の 04時(UTC)まで一時的に
視程: 7000m
高度1000ftの雲はほとんどない
高度1600ftの千切れ雲あり
弱いにわか雨
21日の 04時(UTC)から 21日の 06時(UTC)まで徐々に
北東の風 6kt
21日の 19時(UTC)から 21日の 21時(UTC)まで徐々に
北西の風 3kt

TAF: FIMP 202340Z 2100/2206 34003KT 9999 SCT017 PROB30 TEMPO 2100/2104 7000 -SHRA FEW010 BKN016 BECMG 2104/2106 05006KT BECMG 2119/2121 32003KT

4,000以上の空港の気象観測と天気予報(METAR報とTAF報)

利用可能な観測所は地図上に黄色い丸と赤い丸で示す。

丸の上にカーソルを重ねると観測所名を参照できる。

次にクリックすると気象観測と天気予報を参照できる。

マップの切り替え:黒色「×」印の緑ボタンをクリックして拡大、「-」印の緑ボタンをクリックして縮小、緑色の三角印をクリックして隣りの地図に切り替え


METAR-TAF: